Eco Spitfire — 2HEA4 — position and weather

sailwx.info

Track history (hours):
 
Tides and Currents Weather Stations Pressure Air Temp Water Temp Dewpoint Dewpoint Depression Visibility Wind Speed Wind Dir Waves Ship Positions

Eco Spitfire

Last reported at 2018-Jan-10 22:54 UTC. Time now 2018-Feb-25 00:12 UTC.
Position S 34°51' E 138°18'.
Warning: this ship's position is 45 days out of date.

Length 180 m; draft 9.6 m.

Type: Ship. MMSI: 235102885.

Date/timePositionNaut miles runAvg speedWind from/ knotsBaromVisibWave heightAir tempDewpointWater temp
2018-Jan-10 22:54S 34°51' E 138°18'411.1
2018-Jan-10 22:30S 34°48' E 138°21'7 0.5
2018-Jan-10 07:06S 34°46' E 138°30'0 0.0
2018-Jan-10 07:00S 34°46' E 138°30'0 0.0
2018-Jan-10 03:09S 34°46' E 138°30'9 0.2
2018-Jan-08 07:19S 34°48' E 138°19'84 3.7
2018-Jan-07 08:55S 36°11' E 138°04'1 3.2
2018-Jan-07 08:30S 36°10' E 138°05'219 8.8
2018-Jan-06 07:31S 38°45' E 141°20'013.2
2018-Jan-06 07:30S 38°45' E 141°20'11611.3
2018-Jan-05 21:10S 39°15' E 143°45'212.4
2018-Jan-05 21:00S 39°15' E 143°47'612.5
2018-Jan-05 20:30S 39°17' E 143°55'612.7
2018-Jan-05 20:00S 39°19' E 144°03'612.3
2018-Jan-05 19:30S 39°22' E 144°10'612.6
2018-Jan-05 19:00S 39°26' E 144°16'612.6
2018-Jan-05 18:30S 39°30' E 144°23'612.5
2018-Jan-05 18:00S 39°34' E 144°29'612.2
2018-Jan-05 17:30S 39°38' E 144°35'612.0
2018-Jan-05 17:00S 39°42' E 144°41'612.0
2018-Jan-05 16:30S 39°45' E 144°47'611.9
2018-Jan-05 16:00S 39°49' E 144°53'611.6
2018-Jan-05 15:30S 39°53' E 144°58'611.4
2018-Jan-05 15:00S 39°56' E 145°04'611.0
2018-Jan-05 14:30S 39°60' E 145°10'510.9
2018-Jan-05 14:00S 40°04' E 145°15'510.9
2018-Jan-05 13:30S 40°07' E 145°21'511.0
2018-Jan-05 13:00S 40°11' E 145°26'611.4
2018-Jan-05 12:29S 40°14' E 145°32'511.6
2018-Jan-05 12:00S 40°18' E 145°38'611.8
2018-Jan-05 11:30S 40°21' E 145°44'611.8
2018-Jan-05 11:00S 40°25' E 145°50'611.9
2018-Jan-05 10:30S 40°29' E 145°56'611.7
2018-Jan-05 10:00S 40°32' E 146°02'611.8
2018-Jan-05 09:30S 40°36' E 146°08'611.8
2018-Jan-05 09:00S 40°40' E 146°14'611.9
2018-Jan-05 08:30S 40°44' E 146°20'611.8
2018-Jan-05 08:00S 40°48' E 146°26'611.8
2018-Jan-05 07:30S 40°51' E 146°32'612.0
2018-Jan-05 07:00S 40°55' E 146°38'611.7
2018-Jan-05 06:30S 40°59' E 146°44'510.7
2018-Jan-05 06:01S 41°04' E 146°47'510.4
2018-Jan-05 05:30S 41°09' E 146°50'1 2.7
2018-Jan-05 04:58S 41°08' E 146°52'0 0.0
2018-Jan-05 04:28S 41°08' E 146°52'0 0.0
2018-Jan-05 03:58S 41°08' E 146°52'0 0.0
2018-Jan-05 03:28S 41°08' E 146°52'0 0.0
2018-Jan-05 02:58S 41°08' E 146°52'0 0.0
2018-Jan-05 02:28S 41°08' E 146°52'0 0.0
2018-Jan-05 01:55S 41°08' E 146°52'0 0.0
2018-Jan-05 01:28S 41°08' E 146°52'0 0.0
2018-Jan-05 00:58S 41°08' E 146°52'0 0.0
2018-Jan-05 00:28S 41°08' E 146°52'0 0.0
2018-Jan-04 23:58S 41°08' E 146°52'0 0.0
2018-Jan-04 23:28S 41°08' E 146°52'0 0.0
2018-Jan-04 22:58S 41°08' E 146°52'0 0.0
2018-Jan-04 22:28S 41°08' E 146°52'0 0.0
2018-Jan-04 21:55S 41°08' E 146°52'0 0.0
2018-Jan-04 21:28S 41°08' E 146°52'0 0.0
2018-Jan-04 20:58S 41°08' E 146°52'0 0.0
2018-Jan-04 20:25S 41°08' E 146°52'0 0.0
2018-Jan-04 19:58S 41°08' E 146°52'0 0.0
2018-Jan-04 19:28S 41°08' E 146°52'0 0.0
2018-Jan-04 18:58S 41°08' E 146°52'0 0.0
2018-Jan-04 18:28S 41°08' E 146°52'0 0.0
2018-Jan-04 17:58S 41°08' E 146°52'0 0.0
2018-Jan-04 17:28S 41°08' E 146°52'0 0.0
2018-Jan-04 16:58S 41°08' E 146°52'0 0.0
2018-Jan-04 16:28S 41°08' E 146°52'0 0.0
2018-Jan-04 15:58S 41°08' E 146°52'0 0.0
2018-Jan-04 15:28S 41°08' E 146°52'0 0.0
2018-Jan-04 14:58S 41°08' E 146°52'0 0.0
2018-Jan-04 14:28S 41°08' E 146°52'0 0.0
2018-Jan-04 13:58S 41°08' E 146°52'0 0.0
2018-Jan-04 13:28S 41°08' E 146°52'0 0.0
2018-Jan-04 12:58S 41°08' E 146°52'0 0.0
2018-Jan-04 12:28S 41°08' E 146°52'0 0.0
2018-Jan-04 11:58S 41°08' E 146°52'0 0.0
2018-Jan-04 11:28S 41°08' E 146°52'0 0.0
2018-Jan-04 10:58S 41°08' E 146°52'0 0.0
2018-Jan-04 10:28S 41°08' E 146°52'0 0.0
2018-Jan-04 09:58S 41°08' E 146°52'0 0.0
2018-Jan-04 09:28S 41°08' E 146°52'0 0.0
2018-Jan-04 08:58S 41°08' E 146°52'0 0.0
2018-Jan-04 08:28S 41°08' E 146°52'0 0.0
2018-Jan-04 07:58S 41°08' E 146°52'0 0.0
2018-Jan-04 07:28S 41°08' E 146°52'0 0.0
2018-Jan-04 06:58S 41°08' E 146°52'0 0.0
2018-Jan-04 06:28S 41°08' E 146°52'0 0.0
2018-Jan-04 05:58S 41°08' E 146°52'0 0.0
2018-Jan-04 05:25S 41°08' E 146°52'0 0.0
2018-Jan-04 04:58S 41°08' E 146°52'0 0.0
2018-Jan-04 04:28S 41°08' E 146°52'0 0.0
2018-Jan-04 03:58S 41°08' E 146°52'0 0.0
2018-Jan-04 03:28S 41°08' E 146°52'0 0.0
2018-Jan-04 02:58S 41°08' E 146°52'0 0.0
2018-Jan-04 02:28S 41°08' E 146°52'0 0.0
2018-Jan-04 01:58S 41°08' E 146°52'0 0.0
2018-Jan-04 01:28S 41°08' E 146°52'0 0.0
2018-Jan-04 00:58S 41°08' E 146°52'0 0.0
2018-Jan-04 00:28S 41°08' E 146°52'0 0.0
2018-Jan-03 23:58S 41°08' E 146°52'0 0.0
2018-Jan-03 23:28S 41°08' E 146°52'0 0.0
2018-Jan-03 22:58S 41°08' E 146°52'0 0.0
2018-Jan-03 22:28S 41°08' E 146°52'0 0.0
2018-Jan-03 21:58S 41°08' E 146°52'0 0.0
2018-Jan-03 21:28S 41°08' E 146°52'0 0.0
2018-Jan-03 20:58S 41°08' E 146°52'0 0.0
2018-Jan-03 20:28S 41°08' E 146°52'0 0.0
2018-Jan-03 19:58S 41°08' E 146°52'0 0.0
2018-Jan-03 19:28S 41°08' E 146°52'0 0.0
2018-Jan-03 18:58S 41°08' E 146°52'0 0.0
2018-Jan-03 18:28S 41°08' E 146°52'0 0.0
2018-Jan-03 17:58S 41°08' E 146°52'0 0.0
2018-Jan-03 17:28S 41°08' E 146°52'0 0.0
2018-Jan-03 16:58S 41°08' E 146°52'0 0.0
2018-Jan-03 16:28S 41°08' E 146°52'0 0.0
2018-Jan-03 15:58S 41°08' E 146°52'0 0.0
2018-Jan-03 15:28S 41°08' E 146°52'0 0.0
2018-Jan-03 14:58S 41°08' E 146°52'0 0.0
2018-Jan-03 14:28S 41°08' E 146°52'0 0.0
2018-Jan-03 13:58S 41°08' E 146°52'0 0.0
2018-Jan-03 13:28S 41°08' E 146°52'0 0.0
2018-Jan-03 12:58S 41°08' E 146°52'0 0.0
2018-Jan-03 12:28S 41°08' E 146°52'0 0.0
2018-Jan-03 11:55S 41°08' E 146°52'0 0.0
2018-Jan-03 11:28S 41°08' E 146°52'0 0.0
2018-Jan-03 10:58S 41°08' E 146°52'0 0.0
2018-Jan-03 10:28S 41°08' E 146°52'0 0.0
2018-Jan-03 09:58S 41°08' E 146°52'0 0.0
2018-Jan-03 09:25S 41°08' E 146°52'0 0.0
2018-Jan-03 08:58S 41°08' E 146°52'0 0.0
2018-Jan-03 08:28S 41°08' E 146°52'0 0.0
2018-Jan-03 07:58S 41°08' E 146°52'0 0.0
2018-Jan-03 07:28S 41°08' E 146°52'0 0.0
2018-Jan-03 06:58S 41°08' E 146°52'0 0.0
2018-Jan-03 06:28S 41°08' E 146°52'0 0.0
2018-Jan-03 05:58S 41°08' E 146°52'0 0.0
2018-Jan-03 05:28S 41°08' E 146°52'0 0.0
2018-Jan-03 04:58S 41°08' E 146°52'0 0.0
2018-Jan-03 04:28S 41°08' E 146°52'0 0.0
2018-Jan-03 03:58S 41°08' E 146°52'0 0.0
2018-Jan-03 03:28S 41°08' E 146°52'0 0.0
2018-Jan-03 02:58S 41°08' E 146°52'0 0.0
2018-Jan-03 02:28S 41°08' E 146°52'0 0.0
2018-Jan-03 01:58S 41°08' E 146°52'0 0.0
2018-Jan-03 01:28S 41°08' E 146°52'0 0.0
2018-Jan-03 00:58S 41°08' E 146°52'0 0.0
2018-Jan-03 00:28S 41°08' E 146°52'0 0.0
2018-Jan-02 23:58S 41°08' E 146°52'0 0.0
2018-Jan-02 23:28S 41°08' E 146°52'0 0.0
2018-Jan-02 22:58S 41°08' E 146°52'0 0.0
2018-Jan-02 22:28S 41°08' E 146°52'0 0.0
2018-Jan-02 21:58S 41°08' E 146°52'0 0.0
2018-Jan-02 21:28S 41°08' E 146°52'0 0.0
2018-Jan-02 20:58S 41°08' E 146°52'0 0.0
2018-Jan-02 20:28S 41°08' E 146°52'0 0.0
2018-Jan-02 19:58S 41°08' E 146°52'0 0.0
2018-Jan-02 19:25S 41°08' E 146°52'0 0.0
2018-Jan-02 18:55S 41°08' E 146°52'0 0.0
2018-Jan-02 18:25S 41°08' E 146°52'0 0.0
2018-Jan-02 17:58S 41°08' E 146°52'0 0.0
2018-Jan-02 17:28S 41°08' E 146°52'0 0.0
2018-Jan-02 16:58S 41°08' E 146°52'0 0.0
2018-Jan-02 16:13S 41°08' E 146°52'0 0.0
2018-Jan-02 15:55S 41°08' E 146°52'0 0.1
2018-Jan-02 15:25S 41°08' E 146°52'0 0.0
2018-Jan-02 14:58S 41°08' E 146°52'0 0.0
2018-Jan-02 14:28S 41°08' E 146°52'0 0.0
2018-Jan-02 13:55S 41°08' E 146°52'0 0.1
2018-Jan-02 13:28S 41°08' E 146°52'0 0.0
2018-Jan-02 12:58S 41°08' E 146°52'0 0.0
2018-Jan-02 12:28S 41°08' E 146°52'0 0.1
2018-Jan-02 11:58S 41°08' E 146°52'0 0.1
2018-Jan-02 11:28S 41°08' E 146°52'0 0.1
2018-Jan-02 10:58S 41°08' E 146°52'0 0.0
2018-Jan-02 10:28S 41°08' E 146°52'0 0.0
2018-Jan-02 09:55S 41°08' E 146°52'0 0.1
2018-Jan-02 09:28S 41°08' E 146°52'0 0.0
2018-Jan-02 08:28S 41°08' E 146°52'0 0.0
2018-Jan-02 07:58S 41°08' E 146°52'0 0.0
2018-Jan-02 07:28S 41°08' E 146°52'0 0.1
2018-Jan-02 06:52S 41°08' E 146°52'0 0.1
2018-Jan-02 06:28S 41°08' E 146°52'0 0.0
2018-Jan-02 05:58S 41°08' E 146°52'0 0.0
2018-Jan-02 05:28S 41°08' E 146°52'0 0.0
2018-Jan-02 04:28S 41°08' E 146°52'0 0.0
2018-Jan-02 03:55S 41°08' E 146°52'0 0.1
2018-Jan-02 03:28S 41°08' E 146°52'0 0.1
2018-Jan-02 02:58S 41°08' E 146°52'0 0.1
2018-Jan-02 02:28S 41°08' E 146°52'0 0.0
2018-Jan-02 01:58S 41°08' E 146°52'0 0.1
2018-Jan-02 01:28S 41°08' E 146°52'0 0.0
2018-Jan-02 00:58S 41°08' E 146°52'0 0.0
2018-Jan-02 00:28S 41°08' E 146°52'0 0.1
2018-Jan-01 23:58S 41°08' E 146°52'0 0.1
2018-Jan-01 23:28S 41°08' E 146°52'0 0.0
2018-Jan-01 22:58S 41°08' E 146°52'0 0.1
2018-Jan-01 22:28S 41°08' E 146°52'0 0.1
2018-Jan-01 21:58S 41°08' E 146°52'0 0.0
2018-Jan-01 21:28S 41°08' E 146°52'0 0.1
2018-Jan-01 20:58S 41°08' E 146°52'0 0.0
2018-Jan-01 20:25S 41°08' E 146°52'0 0.1
2018-Jan-01 19:58S 41°08' E 146°52'0 0.1
2018-Jan-01 19:25S 41°08' E 146°52'0 0.1
2018-Jan-01 18:58S 41°08' E 146°52'0 0.0
2018-Jan-01 18:28S 41°08' E 146°52'0 0.1
2018-Jan-01 17:58S 41°08' E 146°52'0 0.1
2018-Jan-01 17:28S 41°08' E 146°52'0 0.0
2018-Jan-01 14:58S 41°08' E 146°52'0 0.1
2018-Jan-01 14:28S 41°08' E 146°52'0 0.1
2018-Jan-01 13:58S 41°08' E 146°52'0 0.0
2018-Jan-01 13:28S 41°08' E 146°52'0 0.1
2018-Jan-01 12:58S 41°08' E 146°52'0 0.0
2018-Jan-01 11:58S 41°08' E 146°52'0 0.1
2018-Jan-01 11:28S 41°08' E 146°52'0 0.1
2018-Jan-01 10:58S 41°08' E 146°52'0 0.1
2018-Jan-01 10:28S 41°08' E 146°52'0 0.0
2018-Jan-01 09:58S 41°08' E 146°52'0 0.0
2018-Jan-01 09:28S 41°08' E 146°52'0 0.0
2018-Jan-01 08:28S 41°08' E 146°52'0 0.1
2018-Jan-01 07:58S 41°08' E 146°52'0 0.0
2018-Jan-01 07:22S 41°08' E 146°52'0 0.0
2018-Jan-01 06:58S 41°08' E 146°52'0 0.0
2018-Jan-01 05:58S 41°08' E 146°52'0 0.0
2018-Jan-01 05:28S 41°08' E 146°52'0 0.0
2018-Jan-01 04:58S 41°08' E 146°52'0 0.0
2018-Jan-01 03:58S 41°08' E 146°52'0 0.1
2018-Jan-01 03:28S 41°08' E 146°52'0 0.1
2018-Jan-01 02:58S 41°08' E 146°52'0 0.0
2018-Jan-01 02:28S 41°08' E 146°52'0 0.0
2018-Jan-01 01:58S 41°08' E 146°52'0 0.0
2018-Jan-01 01:28S 41°08' E 146°52'0 0.0
2018-Jan-01 00:28S 41°08' E 146°52'  
Track history (hours):
 
Tides and Currents Weather Stations Pressure Air Temp Water Temp Dewpoint Dewpoint Depression Visibility Wind Speed Wind Dir Waves Ship Positions

Eco Spitfire

Last reported at 2018-Jan-10 22:54 UTC. Time now 2018-Feb-25 00:12 UTC.
Position S 34°51' E 138°18'.
Warning: this ship's position is 45 days out of date.

Length 180 m; draft 9.6 m.

Type: Ship. MMSI: 235102885.

Date/timePositionNaut miles runAvg speedWind from/ knotsBaromVisibWave heightAir tempDewpointWater temp
2018-Jan-10 22:54S 34°51' E 138°18'411.1
2018-Jan-10 22:30S 34°48' E 138°21'7 0.5
2018-Jan-10 07:06S 34°46' E 138°30'0 0.0
2018-Jan-10 07:00S 34°46' E 138°30'0 0.0
2018-Jan-10 03:09S 34°46' E 138°30'9 0.2
2018-Jan-08 07:19S 34°48' E 138°19'84 3.7
2018-Jan-07 08:55S 36°11' E 138°04'1 3.2
2018-Jan-07 08:30S 36°10' E 138°05'219 8.8
2018-Jan-06 07:31S 38°45' E 141°20'013.2
2018-Jan-06 07:30S 38°45' E 141°20'11611.3
2018-Jan-05 21:10S 39°15' E 143°45'212.4
2018-Jan-05 21:00S 39°15' E 143°47'612.5
2018-Jan-05 20:30S 39°17' E 143°55'612.7
2018-Jan-05 20:00S 39°19' E 144°03'612.3
2018-Jan-05 19:30S 39°22' E 144°10'612.6
2018-Jan-05 19:00S 39°26' E 144°16'612.6
2018-Jan-05 18:30S 39°30' E 144°23'612.5
2018-Jan-05 18:00S 39°34' E 144°29'612.2
2018-Jan-05 17:30S 39°38' E 144°35'612.0
2018-Jan-05 17:00S 39°42' E 144°41'612.0
2018-Jan-05 16:30S 39°45' E 144°47'611.9
2018-Jan-05 16:00S 39°49' E 144°53'611.6
2018-Jan-05 15:30S 39°53' E 144°58'611.4
2018-Jan-05 15:00S 39°56' E 145°04'611.0
2018-Jan-05 14:30S 39°60' E 145°10'510.9
2018-Jan-05 14:00S 40°04' E 145°15'510.9
2018-Jan-05 13:30S 40°07' E 145°21'511.0
2018-Jan-05 13:00S 40°11' E 145°26'611.4
2018-Jan-05 12:29S 40°14' E 145°32'511.6
2018-Jan-05 12:00S 40°18' E 145°38'611.8
2018-Jan-05 11:30S 40°21' E 145°44'611.8
2018-Jan-05 11:00S 40°25' E 145°50'611.9
2018-Jan-05 10:30S 40°29' E 145°56'611.7
2018-Jan-05 10:00S 40°32' E 146°02'611.8
2018-Jan-05 09:30S 40°36' E 146°08'611.8
2018-Jan-05 09:00S 40°40' E 146°14'611.9
2018-Jan-05 08:30S 40°44' E 146°20'611.8
2018-Jan-05 08:00S 40°48' E 146°26'611.8
2018-Jan-05 07:30S 40°51' E 146°32'612.0
2018-Jan-05 07:00S 40°55' E 146°38'611.7
2018-Jan-05 06:30S 40°59' E 146°44'510.7
2018-Jan-05 06:01S 41°04' E 146°47'510.4
2018-Jan-05 05:30S 41°09' E 146°50'1 2.7
2018-Jan-05 04:58S 41°08' E 146°52'0 0.0
2018-Jan-05 04:28S 41°08' E 146°52'0 0.0
2018-Jan-05 03:58S 41°08' E 146°52'0 0.0
2018-Jan-05 03:28S 41°08' E 146°52'0 0.0
2018-Jan-05 02:58S 41°08' E 146°52'0 0.0
2018-Jan-05 02:28S 41°08' E 146°52'0 0.0
2018-Jan-05 01:55S 41°08' E 146°52'0 0.0
2018-Jan-05 01:28S 41°08' E 146°52'0 0.0
2018-Jan-05 00:58S 41°08' E 146°52'0 0.0
2018-Jan-05 00:28S 41°08' E 146°52'0 0.0
2018-Jan-04 23:58S 41°08' E 146°52'0 0.0
2018-Jan-04 23:28S 41°08' E 146°52'0 0.0
2018-Jan-04 22:58S 41°08' E 146°52'0 0.0
2018-Jan-04 22:28S 41°08' E 146°52'0 0.0
2018-Jan-04 21:55S 41°08' E 146°52'0 0.0
2018-Jan-04 21:28S 41°08' E 146°52'0 0.0
2018-Jan-04 20:58S 41°08' E 146°52'0 0.0
2018-Jan-04 20:25S 41°08' E 146°52'0 0.0
2018-Jan-04 19:58S 41°08' E 146°52'0 0.0
2018-Jan-04 19:28S 41°08' E 146°52'0 0.0
2018-Jan-04 18:58S 41°08' E 146°52'0 0.0
2018-Jan-04 18:28S 41°08' E 146°52'0 0.0
2018-Jan-04 17:58S 41°08' E 146°52'0 0.0
2018-Jan-04 17:28S 41°08' E 146°52'0 0.0
2018-Jan-04 16:58S 41°08' E 146°52'0 0.0
2018-Jan-04 16:28S 41°08' E 146°52'0 0.0
2018-Jan-04 15:58S 41°08' E 146°52'0 0.0
2018-Jan-04 15:28S 41°08' E 146°52'0 0.0
2018-Jan-04 14:58S 41°08' E 146°52'0 0.0
2018-Jan-04 14:28S 41°08' E 146°52'0 0.0
2018-Jan-04 13:58S 41°08' E 146°52'0 0.0
2018-Jan-04 13:28S 41°08' E 146°52'0 0.0
2018-Jan-04 12:58S 41°08' E 146°52'0 0.0
2018-Jan-04 12:28S 41°08' E 146°52'0 0.0
2018-Jan-04 11:58S 41°08' E 146°52'0 0.0
2018-Jan-04 11:28S 41°08' E 146°52'0 0.0
2018-Jan-04 10:58S 41°08' E 146°52'0 0.0
2018-Jan-04 10:28S 41°08' E 146°52'0 0.0
2018-Jan-04 09:58S 41°08' E 146°52'0 0.0
2018-Jan-04 09:28S 41°08' E 146°52'0 0.0
2018-Jan-04 08:58S 41°08' E 146°52'0 0.0
2018-Jan-04 08:28S 41°08' E 146°52'0 0.0
2018-Jan-04 07:58S 41°08' E 146°52'0 0.0
2018-Jan-04 07:28S 41°08' E 146°52'0 0.0
2018-Jan-04 06:58S 41°08' E 146°52'0 0.0
2018-Jan-04 06:28S 41°08' E 146°52'0 0.0
2018-Jan-04 05:58S 41°08' E 146°52'0 0.0
2018-Jan-04 05:25S 41°08' E 146°52'0 0.0
2018-Jan-04 04:58S 41°08' E 146°52'0 0.0
2018-Jan-04 04:28S 41°08' E 146°52'0 0.0
2018-Jan-04 03:58S 41°08' E 146°52'0 0.0
2018-Jan-04 03:28S 41°08' E 146°52'0 0.0
2018-Jan-04 02:58S 41°08' E 146°52'0 0.0
2018-Jan-04 02:28S 41°08' E 146°52'0 0.0
2018-Jan-04 01:58S 41°08' E 146°52'0 0.0
2018-Jan-04 01:28S 41°08' E 146°52'0 0.0
2018-Jan-04 00:58S 41°08' E 146°52'0 0.0
2018-Jan-04 00:28S 41°08' E 146°52'0 0.0
2018-Jan-03 23:58S 41°08' E 146°52'0 0.0
2018-Jan-03 23:28S 41°08' E 146°52'0 0.0
2018-Jan-03 22:58S 41°08' E 146°52'0 0.0
2018-Jan-03 22:28S 41°08' E 146°52'0 0.0
2018-Jan-03 21:58S 41°08' E 146°52'0 0.0
2018-Jan-03 21:28S 41°08' E 146°52'0 0.0
2018-Jan-03 20:58S 41°08' E 146°52'0 0.0
2018-Jan-03 20:28S 41°08' E 146°52'0 0.0
2018-Jan-03 19:58S 41°08' E 146°52'0 0.0
2018-Jan-03 19:28S 41°08' E 146°52'0 0.0
2018-Jan-03 18:58S 41°08' E 146°52'0 0.0
2018-Jan-03 18:28S 41°08' E 146°52'0 0.0
2018-Jan-03 17:58S 41°08' E 146°52'0 0.0
2018-Jan-03 17:28S 41°08' E 146°52'0 0.0
2018-Jan-03 16:58S 41°08' E 146°52'0 0.0
2018-Jan-03 16:28S 41°08' E 146°52'0 0.0
2018-Jan-03 15:58S 41°08' E 146°52'0 0.0
2018-Jan-03 15:28S 41°08' E 146°52'0 0.0
2018-Jan-03 14:58S 41°08' E 146°52'0 0.0
2018-Jan-03 14:28S 41°08' E 146°52'0 0.0
2018-Jan-03 13:58S 41°08' E 146°52'0 0.0
2018-Jan-03 13:28S 41°08' E 146°52'0 0.0
2018-Jan-03 12:58S 41°08' E 146°52'0 0.0
2018-Jan-03 12:28S 41°08' E 146°52'0 0.0
2018-Jan-03 11:55S 41°08' E 146°52'0 0.0
2018-Jan-03 11:28S 41°08' E 146°52'0 0.0
2018-Jan-03 10:58S 41°08' E 146°52'0 0.0
2018-Jan-03 10:28S 41°08' E 146°52'0 0.0
2018-Jan-03 09:58S 41°08' E 146°52'0 0.0
2018-Jan-03 09:25S 41°08' E 146°52'0 0.0
2018-Jan-03 08:58S 41°08' E 146°52'0 0.0
2018-Jan-03 08:28S 41°08' E 146°52'0 0.0
2018-Jan-03 07:58S 41°08' E 146°52'0 0.0
2018-Jan-03 07:28S 41°08' E 146°52'0 0.0
2018-Jan-03 06:58S 41°08' E 146°52'0 0.0
2018-Jan-03 06:28S 41°08' E 146°52'0 0.0
2018-Jan-03 05:58S 41°08' E 146°52'0 0.0
2018-Jan-03 05:28S 41°08' E 146°52'0 0.0
2018-Jan-03 04:58S 41°08' E 146°52'0 0.0
2018-Jan-03 04:28S 41°08' E 146°52'0 0.0
2018-Jan-03 03:58S 41°08' E 146°52'0 0.0
2018-Jan-03 03:28S 41°08' E 146°52'0 0.0
2018-Jan-03 02:58S 41°08' E 146°52'0 0.0
2018-Jan-03 02:28S 41°08' E 146°52'0 0.0
2018-Jan-03 01:58S 41°08' E 146°52'0 0.0
2018-Jan-03 01:28S 41°08' E 146°52'0 0.0
2018-Jan-03 00:58S 41°08' E 146°52'0 0.0
2018-Jan-03 00:28S 41°08' E 146°52'0 0.0
2018-Jan-02 23:58S 41°08' E 146°52'0 0.0
2018-Jan-02 23:28S 41°08' E 146°52'0 0.0
2018-Jan-02 22:58S 41°08' E 146°52'0 0.0
2018-Jan-02 22:28S 41°08' E 146°52'0 0.0
2018-Jan-02 21:58S 41°08' E 146°52'0 0.0
2018-Jan-02 21:28S 41°08' E 146°52'0 0.0
2018-Jan-02 20:58S 41°08' E 146°52'0 0.0
2018-Jan-02 20:28S 41°08' E 146°52'0 0.0
2018-Jan-02 19:58S 41°08' E 146°52'0 0.0
2018-Jan-02 19:25S 41°08' E 146°52'0 0.0
2018-Jan-02 18:55S 41°08' E 146°52'0 0.0
2018-Jan-02 18:25S 41°08' E 146°52'0 0.0
2018-Jan-02 17:58S 41°08' E 146°52'0 0.0
2018-Jan-02 17:28S 41°08' E 146°52'0 0.0
2018-Jan-02 16:58S 41°08' E 146°52'0 0.0
2018-Jan-02 16:13S 41°08' E 146°52'0 0.0
2018-Jan-02 15:55S 41°08' E 146°52'0 0.1
2018-Jan-02 15:25S 41°08' E 146°52'0 0.0
2018-Jan-02 14:58S 41°08' E 146°52'0 0.0
2018-Jan-02 14:28S 41°08' E 146°52'0 0.0
2018-Jan-02 13:55S 41°08' E 146°52'0 0.1
2018-Jan-02 13:28S 41°08' E 146°52'0 0.0
2018-Jan-02 12:58S 41°08' E 146°52'0 0.0
2018-Jan-02 12:28S 41°08' E 146°52'0 0.1
2018-Jan-02 11:58S 41°08' E 146°52'0 0.1
2018-Jan-02 11:28S 41°08' E 146°52'0 0.1
2018-Jan-02 10:58S 41°08' E 146°52'0 0.0
2018-Jan-02 10:28S 41°08' E 146°52'0 0.0
2018-Jan-02 09:55S 41°08' E 146°52'0 0.1
2018-Jan-02 09:28S 41°08' E 146°52'0 0.0
2018-Jan-02 08:28S 41°08' E 146°52'0 0.0
2018-Jan-02 07:58S 41°08' E 146°52'0 0.0
2018-Jan-02 07:28S 41°08' E 146°52'0 0.1
2018-Jan-02 06:52S 41°08' E 146°52'0 0.1
2018-Jan-02 06:28S 41°08' E 146°52'0 0.0
2018-Jan-02 05:58S 41°08' E 146°52'0 0.0
2018-Jan-02 05:28S 41°08' E 146°52'0 0.0
2018-Jan-02 04:28S 41°08' E 146°52'0 0.0
2018-Jan-02 03:55S 41°08' E 146°52'0 0.1
2018-Jan-02 03:28S 41°08' E 146°52'0 0.1
2018-Jan-02 02:58S 41°08' E 146°52'0 0.1
2018-Jan-02 02:28S 41°08' E 146°52'0 0.0
2018-Jan-02 01:58S 41°08' E 146°52'0 0.1
2018-Jan-02 01:28S 41°08' E 146°52'0 0.0
2018-Jan-02 00:58S 41°08' E 146°52'0 0.0
2018-Jan-02 00:28S 41°08' E 146°52'0 0.1
2018-Jan-01 23:58S 41°08' E 146°52'0 0.1
2018-Jan-01 23:28S 41°08' E 146°52'0 0.0
2018-Jan-01 22:58S 41°08' E 146°52'0 0.1
2018-Jan-01 22:28S 41°08' E 146°52'0 0.1
2018-Jan-01 21:58S 41°08' E 146°52'0 0.0
2018-Jan-01 21:28S 41°08' E 146°52'0 0.1
2018-Jan-01 20:58S 41°08' E 146°52'0 0.0
2018-Jan-01 20:25S 41°08' E 146°52'0 0.1
2018-Jan-01 19:58S 41°08' E 146°52'0 0.1
2018-Jan-01 19:25S 41°08' E 146°52'0 0.1
2018-Jan-01 18:58S 41°08' E 146°52'0 0.0
2018-Jan-01 18:28S 41°08' E 146°52'0 0.1
2018-Jan-01 17:58S 41°08' E 146°52'0 0.1
2018-Jan-01 17:28S 41°08' E 146°52'0 0.0
2018-Jan-01 14:58S 41°08' E 146°52'0 0.1
2018-Jan-01 14:28S 41°08' E 146°52'0 0.1
2018-Jan-01 13:58S 41°08' E 146°52'0 0.0
2018-Jan-01 13:28S 41°08' E 146°52'0 0.1
2018-Jan-01 12:58S 41°08' E 146°52'0 0.0
2018-Jan-01 11:58S 41°08' E 146°52'0 0.1
2018-Jan-01 11:28S 41°08' E 146°52'0 0.1
2018-Jan-01 10:58S 41°08' E 146°52'0 0.1
2018-Jan-01 10:28S 41°08' E 146°52'0 0.0
2018-Jan-01 09:58S 41°08' E 146°52'0 0.0
2018-Jan-01 09:28S 41°08' E 146°52'0 0.0
2018-Jan-01 08:28S 41°08' E 146°52'0 0.1
2018-Jan-01 07:58S 41°08' E 146°52'0 0.0
2018-Jan-01 07:22S 41°08' E 146°52'0 0.0
2018-Jan-01 06:58S 41°08' E 146°52'0 0.0
2018-Jan-01 05:58S 41°08' E 146°52'0 0.0
2018-Jan-01 05:28S 41°08' E 146°52'0 0.0
2018-Jan-01 04:58S 41°08' E 146°52'0 0.0
2018-Jan-01 03:58S 41°08' E 146°52'0 0.1
2018-Jan-01 03:28S 41°08' E 146°52'0 0.1
2018-Jan-01 02:58S 41°08' E 146°52'0 0.0
2018-Jan-01 02:28S 41°08' E 146°52'0 0.0
2018-Jan-01 01:58S 41°08' E 146°52'0 0.0
2018-Jan-01 01:28S 41°08' E 146°52'0 0.0
2018-Jan-01 00:28S 41°08' E 146°52'  

Dump ship's entire track history